createdAt,value
2017-10-26T00:00:13.487Z,13.85
2017-10-26T00:00:54.060Z,13.95
2017-10-26T00:01:34.647Z,13.86
2017-10-26T00:02:15.206Z,13.78
2017-10-26T00:02:55.779Z,13.78
2017-10-26T00:03:36.360Z,13.78
2017-10-26T00:04:16.924Z,13.77
2017-10-26T00:04:57.509Z,13.78
2017-10-26T00:05:38.087Z,13.79
2017-10-26T00:06:18.673Z,13.75
2017-10-26T00:06:59.256Z,13.77
2017-10-26T00:07:39.855Z,13.74
2017-10-26T00:08:20.420Z,13.81
2017-10-26T00:09:00.992Z,13.81
2017-10-26T00:09:41.567Z,13.77
2017-10-26T00:10:22.153Z,13.85
2017-10-26T00:11:02.753Z,13.79
2017-10-26T00:11:43.300Z,13.77
2017-10-26T00:12:23.887Z,13.74
2017-10-26T00:13:04.466Z,13.79
2017-10-26T00:13:44.999Z,13.77
2017-10-26T00:14:25.569Z,13.78
2017-10-26T00:15:06.161Z,13.78
2017-10-26T00:15:46.746Z,13.83
2017-10-26T00:16:27.328Z,13.86
2017-10-26T00:17:07.904Z,13.79
2017-10-26T00:17:48.471Z,13.79
2017-10-26T00:18:29.035Z,13.79
2017-10-26T00:19:09.656Z,13.83
2017-10-26T00:19:50.236Z,13.75
2017-10-26T00:20:30.832Z,13.78
2017-10-26T00:21:11.426Z,13.83
2017-10-26T00:21:52.011Z,13.78
2017-10-26T00:22:32.590Z,13.81
2017-10-26T00:23:13.174Z,13.75
2017-10-26T00:23:53.756Z,13.81
2017-10-26T00:24:34.354Z,13.78
2017-10-26T00:25:14.964Z,13.74
2017-10-26T00:25:55.544Z,13.79
2017-10-26T00:26:36.113Z,13.83
2017-10-26T00:27:16.699Z,13.71
2017-10-26T00:27:57.309Z,13.74
2017-10-26T00:28:37.898Z,13.74
2017-10-26T00:29:18.496Z,13.83
2017-10-26T00:29:59.067Z,13.75
2017-10-26T00:30:39.648Z,13.71
2017-10-26T00:31:20.243Z,13.72
2017-10-26T00:32:00.849Z,13.7
2017-10-26T00:32:41.413Z,13.62
2017-10-26T00:33:21.995Z,13.56
2017-10-26T00:34:05.278Z,13.59
2017-10-26T00:34:45.875Z,13.67
2017-10-26T00:35:26.434Z,13.65
2017-10-26T00:36:07.007Z,13.65
2017-10-26T00:36:47.580Z,13.67
2017-10-26T00:37:28.179Z,13.62
2017-10-26T00:38:08.781Z,13.62
2017-10-26T00:38:49.339Z,13.62
2017-10-26T00:39:29.943Z,13.6
2017-10-26T00:40:10.542Z,13.6
2017-10-26T00:40:51.713Z,13.65
2017-10-26T00:41:32.294Z,13.67
2017-10-26T00:42:12.864Z,13.59
2017-10-26T00:42:53.442Z,13.62
2017-10-26T00:43:34.016Z,13.57
2017-10-26T00:44:14.588Z,13.65
2017-10-26T00:44:55.166Z,13.6
2017-10-26T00:45:35.757Z,13.59
2017-10-26T00:46:16.318Z,13.65
2017-10-26T00:46:56.911Z,13.57
2017-10-26T00:47:37.465Z,13.54
2017-10-26T00:48:18.066Z,13.59
2017-10-26T00:48:58.630Z,13.52
2017-10-26T00:49:39.192Z,13.53
2017-10-26T00:50:19.758Z,13.56
2017-10-26T00:51:00.332Z,13.53
2017-10-26T00:51:40.939Z,13.56
2017-10-26T00:52:21.535Z,13.56
2017-10-26T00:53:02.120Z,13.56
2017-10-26T00:53:42.702Z,13.5
2017-10-26T00:54:23.289Z,13.46
2017-10-26T00:55:03.890Z,13.46
2017-10-26T00:55:44.476Z,13.44
2017-10-26T00:56:25.052Z,13.44
2017-10-26T00:57:05.671Z,13.57
2017-10-26T00:57:46.252Z,13.47
2017-10-26T00:58:26.836Z,13.49
2017-10-26T00:59:07.414Z,13.46
2017-10-26T00:59:48.005Z,13.44
2017-10-26T01:00:28.576Z,13.52
2017-10-26T01:01:09.146Z,13.5
2017-10-26T01:01:49.707Z,13.47
2017-10-26T01:02:30.318Z,13.5
2017-10-26T01:03:10.903Z,13.44
2017-10-26T01:03:51.484Z,13.42
2017-10-26T01:04:32.052Z,13.47
2017-10-26T01:05:12.656Z,13.47
2017-10-26T01:05:53.224Z,13.53
2017-10-26T01:06:33.795Z,13.53
2017-10-26T01:07:14.403Z,13.47
2017-10-26T01:07:54.983Z,13.42
2017-10-26T01:08:35.556Z,13.57
2017-10-26T01:09:16.171Z,13.46
2017-10-26T01:09:56.755Z,13.42
2017-10-26T01:10:37.346Z,13.41
2017-10-26T01:11:17.926Z,13.44
2017-10-26T01:11:58.503Z,13.44
2017-10-26T01:12:39.078Z,13.5
2017-10-26T01:13:19.646Z,13.52
2017-10-26T01:14:00.236Z,13.41
2017-10-26T01:14:40.835Z,13.38
2017-10-26T01:15:21.436Z,13.38
2017-10-26T01:16:02.005Z,13.41
2017-10-26T01:16:42.580Z,13.44
2017-10-26T01:17:23.199Z,13.38
2017-10-26T01:18:03.784Z,13.39
2017-10-26T01:18:44.375Z,13.38
2017-10-26T01:19:24.948Z,13.38
2017-10-26T01:20:05.535Z,13.41
2017-10-26T01:20:46.101Z,13.41
2017-10-26T01:21:26.702Z,13.46
2017-10-26T01:22:07.275Z,13.44
2017-10-26T01:22:47.837Z,13.38
2017-10-26T01:23:28.412Z,13.41
2017-10-26T01:24:08.986Z,13.37
2017-10-26T01:24:49.582Z,13.38
2017-10-26T01:25:30.164Z,13.35
2017-10-26T01:26:10.737Z,13.41
2017-10-26T01:26:51.334Z,13.31
2017-10-26T01:27:31.940Z,13.35
2017-10-26T01:28:12.493Z,13.35
2017-10-26T01:28:53.079Z,13.38
2017-10-26T01:29:33.637Z,13.38
2017-10-26T01:30:14.194Z,13.35
2017-10-26T01:30:54.773Z,13.39
2017-10-26T01:31:35.337Z,13.33
2017-10-26T01:32:15.885Z,13.3
2017-10-26T01:32:56.455Z,13.33
2017-10-26T01:33:37.031Z,13.31
2017-10-26T01:34:17.604Z,13.38
2017-10-26T01:34:58.176Z,13.33
2017-10-26T01:35:38.750Z,13.33
2017-10-26T01:36:19.315Z,13.22
2017-10-26T01:36:59.906Z,13.2
2017-10-26T01:37:40.489Z,13.23
2017-10-26T01:38:21.066Z,13.2
2017-10-26T01:39:01.661Z,13.23
2017-10-26T01:39:42.251Z,13.25
2017-10-26T01:40:22.830Z,13.19
2017-10-26T01:41:03.420Z,13.22
2017-10-26T01:41:44.001Z,13.16
2017-10-26T01:42:24.634Z,13.23
2017-10-26T01:43:05.199Z,13.18
2017-10-26T01:43:45.783Z,13.23
2017-10-26T01:44:26.366Z,13.18
2017-10-26T01:45:06.932Z,13.13
2017-10-26T01:45:47.522Z,13.23
2017-10-26T01:46:28.123Z,13.15
2017-10-26T01:47:08.684Z,13.18
2017-10-26T01:47:49.295Z,13.19
2017-10-26T01:48:29.890Z,13.18
2017-10-26T01:49:10.457Z,13.15
2017-10-26T01:49:51.052Z,13.18
2017-10-26T01:50:31.640Z,13.22
2017-10-26T01:51:12.225Z,13.2
2017-10-26T01:51:52.805Z,13.22
2017-10-26T01:52:33.393Z,13.27
2017-10-26T01:53:13.981Z,13.2
2017-10-26T01:53:54.575Z,13.19
2017-10-26T01:54:35.164Z,13.18
2017-10-26T01:55:15.735Z,13.15
2017-10-26T01:55:56.321Z,13.23
2017-10-26T01:56:36.891Z,13.16
2017-10-26T01:57:17.477Z,13.16
2017-10-26T01:57:58.079Z,13.05
2017-10-26T01:58:38.654Z,13.05
2017-10-26T01:59:19.215Z,13.13
2017-10-26T01:59:59.794Z,13.16
2017-10-26T02:00:40.372Z,13.16
2017-10-26T02:01:20.948Z,13.05
2017-10-26T02:02:01.519Z,13.08
2017-10-26T02:02:42.097Z,13.05
2017-10-26T02:03:22.663Z,13.08
2017-10-26T02:04:03.251Z,13.11
2017-10-26T02:04:43.831Z,13.11
2017-10-26T02:05:24.402Z,13.12
2017-10-26T02:06:04.965Z,13.11
2017-10-26T02:06:45.565Z,13.08
2017-10-26T02:07:26.142Z,13.12
2017-10-26T02:08:06.735Z,13.08
2017-10-26T02:08:47.327Z,13.15
2017-10-26T02:09:27.889Z,13.04
2017-10-26T02:10:08.472Z,13.09
2017-10-26T02:10:49.038Z,13.04
2017-10-26T02:11:29.639Z,13.08
2017-10-26T02:12:10.208Z,13.09
2017-10-26T02:12:50.777Z,13.08
2017-10-26T02:13:31.358Z,13.08
2017-10-26T02:14:11.925Z,13.15
2017-10-26T02:14:52.507Z,13.12
2017-10-26T02:15:33.079Z,13.13
2017-10-26T02:16:13.714Z,13.11
2017-10-26T02:16:54.272Z,13.11
2017-10-26T02:17:34.853Z,13.11
2017-10-26T02:18:15.412Z,13.15
2017-10-26T02:18:56.006Z,13.19
2017-10-26T02:19:36.575Z,13.11
2017-10-26T02:20:17.139Z,13.13
2017-10-26T02:20:57.719Z,13.16
2017-10-26T02:21:38.281Z,13.12
2017-10-26T02:22:18.861Z,13.13
2017-10-26T02:22:59.452Z,13.11
2017-10-26T02:23:40.061Z,13.11
2017-10-26T02:24:20.641Z,13.25
2017-10-26T02:25:01.210Z,13.09
2017-10-26T02:25:41.779Z,13.28
2017-10-26T02:26:22.354Z,13.19
2017-10-26T02:27:02.945Z,13.3
2017-10-26T02:27:43.486Z,13.27
2017-10-26T02:28:24.063Z,13.27
2017-10-26T02:29:04.644Z,13.27
2017-10-26T02:29:45.210Z,13.23
2017-10-26T02:30:25.780Z,13.31
2017-10-26T02:31:06.379Z,13.2
2017-10-26T02:31:46.926Z,13.3
2017-10-26T02:32:27.506Z,13.33
2017-10-26T02:33:08.085Z,13.33
2017-10-26T02:33:48.650Z,13.35
2017-10-26T02:34:29.231Z,13.31
2017-10-26T02:35:09.806Z,13.19
2017-10-26T02:35:50.370Z,13.31
2017-10-26T02:36:30.966Z,13.31
2017-10-26T02:37:11.539Z,13.33
2017-10-26T02:37:52.145Z,13.28
2017-10-26T02:38:32.725Z,13.35
2017-10-26T02:39:13.314Z,13.31
2017-10-26T02:39:53.889Z,13.25
2017-10-26T02:40:34.462Z,13.35
2017-10-26T02:41:15.027Z,13.28
2017-10-26T02:41:55.595Z,13.25
2017-10-26T02:42:36.174Z,13.27
2017-10-26T02:43:16.728Z,13.23
2017-10-26T02:43:57.307Z,13.25
2017-10-26T02:44:37.903Z,13.2
2017-10-26T02:45:18.482Z,13.22
2017-10-26T02:45:59.058Z,13.31
2017-10-26T02:46:39.671Z,13.27
2017-10-26T02:47:20.243Z,13.25
2017-10-26T02:48:00.833Z,13.2
2017-10-26T02:48:41.414Z,13.19
2017-10-26T02:49:21.989Z,13.23
2017-10-26T02:50:02.588Z,13.35
2017-10-26T02:50:43.166Z,13.31
2017-10-26T02:51:23.739Z,13.31
2017-10-26T02:52:04.319Z,13.15
2017-10-26T02:52:44.892Z,13.19
2017-10-26T02:53:25.460Z,13.25
2017-10-26T02:54:06.030Z,13.23
2017-10-26T02:54:46.618Z,13.23
2017-10-26T02:55:27.198Z,13.2
2017-10-26T02:56:07.767Z,13.18
2017-10-26T02:56:48.332Z,13.16
2017-10-26T02:57:28.883Z,13.25
2017-10-26T02:58:09.461Z,13.15
2017-10-26T02:58:50.050Z,13.12
2017-10-26T02:59:30.660Z,13.11
2017-10-26T03:00:11.241Z,13.09
2017-10-26T03:00:51.811Z,13.11
2017-10-26T03:01:32.392Z,13.12
2017-10-26T03:02:12.969Z,13.08
2017-10-26T03:02:53.552Z,13.15
2017-10-26T03:03:34.126Z,13.09
2017-10-26T03:04:14.717Z,13.08
2017-10-26T03:04:55.292Z,13.12
2017-10-26T03:05:35.885Z,13.08
2017-10-26T03:06:16.471Z,13.11
2017-10-26T03:06:57.034Z,13.11
2017-10-26T03:07:37.610Z,13.09
2017-10-26T03:08:18.190Z,13.13
2017-10-26T03:08:58.754Z,13.12
2017-10-26T03:09:39.322Z,13.08
2017-10-26T03:10:19.914Z,13.11
2017-10-26T03:11:00.495Z,13.09
2017-10-26T03:11:41.061Z,13.13
2017-10-26T03:12:21.642Z,13.13
2017-10-26T03:13:02.225Z,13.11
2017-10-26T03:13:42.808Z,13.12
2017-10-26T03:14:23.383Z,13.09
2017-10-26T03:15:03.976Z,13.08
2017-10-26T03:15:44.540Z,13.09
2017-10-26T03:16:25.146Z,13.09
2017-10-26T03:17:05.738Z,13.08
2017-10-26T03:17:46.318Z,13.16
2017-10-26T03:18:26.907Z,13.15
2017-10-26T03:19:07.520Z,13.09
2017-10-26T03:19:48.105Z,13.12
2017-10-26T03:20:28.688Z,13.16
2017-10-26T03:21:09.257Z,13.15
2017-10-26T03:21:49.845Z,13.15
2017-10-26T03:22:30.405Z,13.22
2017-10-26T03:23:10.981Z,13.23
2017-10-26T03:23:51.554Z,13.13
2017-10-26T03:24:32.143Z,13.13
2017-10-26T03:25:12.739Z,13.16
2017-10-26T03:25:53.288Z,13.11
2017-10-26T03:26:33.862Z,13.11
2017-10-26T03:27:14.448Z,13.19
2017-10-26T03:27:55.050Z,13.12
2017-10-26T03:28:35.655Z,13.08
2017-10-26T03:29:16.228Z,13.15
2017-10-26T03:29:56.805Z,13.11
2017-10-26T03:30:37.446Z,13.15
2017-10-26T03:31:18.007Z,13.12
2017-10-26T03:31:58.581Z,13.15
2017-10-26T03:32:39.165Z,13.13
2017-10-26T03:33:19.753Z,13.05
2017-10-26T03:34:00.335Z,13.11
2017-10-26T03:34:40.918Z,13.11
2017-10-26T03:35:21.509Z,13.18
2017-10-26T03:36:02.110Z,13.08
2017-10-26T03:36:42.705Z,13.11
2017-10-26T03:37:23.270Z,13.12
2017-10-26T03:38:03.871Z,13.09
2017-10-26T03:38:44.471Z,13.11
2017-10-26T03:39:25.069Z,13.08
2017-10-26T03:40:05.699Z,13.13
2017-10-26T03:40:46.257Z,13.04
2017-10-26T03:41:26.829Z,13.18
2017-10-26T03:42:07.419Z,13.13
2017-10-26T03:42:48.032Z,13.15
2017-10-26T03:43:28.610Z,13.13
2017-10-26T03:44:09.250Z,13.16
2017-10-26T03:44:49.857Z,13.19
2017-10-26T03:45:30.418Z,13.08
2017-10-26T03:46:11.020Z,13.11
2017-10-26T03:46:51.631Z,13.18
2017-10-26T03:47:32.209Z,13.11
2017-10-26T03:48:12.792Z,13.19
2017-10-26T03:48:53.397Z,13.2
2017-10-26T03:49:33.978Z,13.25
2017-10-26T03:50:14.583Z,13.16
2017-10-26T03:50:55.145Z,13.2
2017-10-26T03:51:35.748Z,13.08
2017-10-26T03:52:16.350Z,13.28
2017-10-26T03:52:56.960Z,13.16
2017-10-26T03:53:37.554Z,13.23
2017-10-26T03:54:18.171Z,13.18
2017-10-26T03:54:58.776Z,13.18
2017-10-26T03:55:39.341Z,13.15
2017-10-26T03:56:19.920Z,13.18
2017-10-26T03:57:00.508Z,13.16
2017-10-26T03:57:41.142Z,13.18
2017-10-26T03:58:21.743Z,13.18
2017-10-26T03:59:02.309Z,13.19
2017-10-26T03:59:42.892Z,13.16
2017-10-26T04:00:23.481Z,13.13
2017-10-26T04:01:04.083Z,13.27
2017-10-26T04:01:44.686Z,13.15
2017-10-26T04:02:25.288Z,13.19
2017-10-26T04:03:05.889Z,13.18
2017-10-26T04:03:46.483Z,13.19
2017-10-26T04:04:27.090Z,13.16
2017-10-26T04:05:07.705Z,13.15
2017-10-26T04:05:48.259Z,13.16
2017-10-26T04:06:28.875Z,13.18
2017-10-26T04:07:09.415Z,13.27
2017-10-26T04:07:50.031Z,13.12
2017-10-26T04:08:30.616Z,13.18
2017-10-26T04:09:11.243Z,13.18
2017-10-26T04:09:51.791Z,13.16
2017-10-26T04:10:32.396Z,13.11
2017-10-26T04:11:13.014Z,13.08
2017-10-26T04:11:53.633Z,13.13
2017-10-26T04:12:34.298Z,13.08
2017-10-26T04:13:14.889Z,13.18
2017-10-26T04:13:55.464Z,13.13
2017-10-26T04:14:36.038Z,13.16
2017-10-26T04:15:16.660Z,13.16
2017-10-26T04:15:57.242Z,13.09
2017-10-26T04:16:37.828Z,13.03
2017-10-26T04:17:18.462Z,13.16
2017-10-26T04:17:59.028Z,13.23
2017-10-26T04:18:39.604Z,13.25
2017-10-26T04:19:20.177Z,13.13
2017-10-26T04:20:00.756Z,13.16
2017-10-26T04:20:41.347Z,13.25
2017-10-26T04:21:21.976Z,13.15
2017-10-26T04:22:02.548Z,13.22
2017-10-26T04:22:43.124Z,13.19
2017-10-26T04:23:23.735Z,13.18
2017-10-26T04:24:04.310Z,13.28
2017-10-26T04:24:44.930Z,13.23
2017-10-26T04:25:25.523Z,13.2
2017-10-26T04:26:06.109Z,13.16
2017-10-26T04:26:46.719Z,13.31
2017-10-26T04:27:27.299Z,13.27
2017-10-26T04:28:07.867Z,13.3
2017-10-26T04:28:48.446Z,13.3
2017-10-26T04:29:29.049Z,13.22
2017-10-26T04:30:09.633Z,13.22
2017-10-26T04:30:50.197Z,13.22
2017-10-26T04:31:30.780Z,13.19
2017-10-26T04:32:11.371Z,13.19
2017-10-26T04:32:51.947Z,13.22
2017-10-26T04:33:32.517Z,13.19
2017-10-26T04:34:13.076Z,13.27
2017-10-26T04:34:53.671Z,13.25
2017-10-26T04:35:34.229Z,13.2
2017-10-26T04:36:14.808Z,13.22
2017-10-26T04:36:55.421Z,13.25
2017-10-26T04:37:35.985Z,13.23
2017-10-26T04:38:16.565Z,13.2
2017-10-26T04:38:57.155Z,13.23
2017-10-26T04:39:37.724Z,13.18
2017-10-26T04:40:18.294Z,13.23
2017-10-26T04:40:58.909Z,13.3
2017-10-26T04:41:39.483Z,13.16
2017-10-26T04:42:20.051Z,13.18
2017-10-26T04:43:00.645Z,13.13
2017-10-26T04:43:41.211Z,13.2
2017-10-26T04:44:21.782Z,13.2
2017-10-26T04:45:02.405Z,13.25
2017-10-26T04:45:43.036Z,13.16
2017-10-26T04:46:23.654Z,13.13
2017-10-26T04:47:04.196Z,13.18
2017-10-26T04:47:44.819Z,13.16
2017-10-26T04:48:25.444Z,13.18
2017-10-26T04:49:06.047Z,13.16
2017-10-26T04:49:46.686Z,13.13
2017-10-26T04:50:27.337Z,13.19
2017-10-26T04:51:07.941Z,13.12
2017-10-26T04:51:48.526Z,13.22
2017-10-26T04:52:29.102Z,13.11
2017-10-26T04:53:09.668Z,13.23
2017-10-26T04:53:50.263Z,13.18
2017-10-26T04:54:30.894Z,13.16
2017-10-26T04:55:11.470Z,13.18
2017-10-26T04:55:52.044Z,13.13
2017-10-26T04:56:32.613Z,13.16
2017-10-26T04:57:13.204Z,13.18
2017-10-26T04:57:53.797Z,13.16
2017-10-26T04:58:34.352Z,13.16
2017-10-26T04:59:14.936Z,13.23
2017-10-26T04:59:55.524Z,13.13
2017-10-26T05:00:36.139Z,13.22
2017-10-26T05:01:16.737Z,13.19
2017-10-26T05:01:57.340Z,13.22
2017-10-26T05:02:37.917Z,13.13
2017-10-26T05:03:18.484Z,13.19
2017-10-26T05:03:59.070Z,13.12
2017-10-26T05:04:39.648Z,13.27
2017-10-26T05:05:20.230Z,13.13
2017-10-26T05:06:00.814Z,13.16
2017-10-26T05:06:41.410Z,13.22
2017-10-26T05:07:22.007Z,13.22
2017-10-26T05:08:02.602Z,13.2
2017-10-26T05:08:43.215Z,13.22
2017-10-26T05:09:23.784Z,13.15
2017-10-26T05:10:04.357Z,13.25
2017-10-26T05:10:44.939Z,13.19
2017-10-26T05:11:25.511Z,13.18
2017-10-26T05:12:06.078Z,13.12
2017-10-26T05:12:46.668Z,13.15
2017-10-26T05:13:27.240Z,13.18
2017-10-26T05:14:07.878Z,13.12
2017-10-26T05:14:48.494Z,13.09
2017-10-26T05:15:29.077Z,13.13
2017-10-26T05:16:09.664Z,13.12
2017-10-26T05:16:50.257Z,13.13
2017-10-26T05:17:30.831Z,13.12
2017-10-26T05:18:11.424Z,13.09
2017-10-26T05:18:52.044Z,13.09
2017-10-26T05:19:32.615Z,13.13
2017-10-26T05:20:13.201Z,13.11
2017-10-26T05:20:53.788Z,13.11
2017-10-26T05:21:34.379Z,13.08
2017-10-26T05:22:14.962Z,13.16
2017-10-26T05:22:55.550Z,13.18
2017-10-26T05:23:36.131Z,13.11
2017-10-26T05:24:16.715Z,13.09
2017-10-26T05:24:57.445Z,13.11
2017-10-26T05:25:38.013Z,13.18
2017-10-26T05:26:18.734Z,13.16
2017-10-26T05:26:59.648Z,13.12
2017-10-26T05:27:40.228Z,13.11
2017-10-26T05:28:20.819Z,13.15
2017-10-26T05:29:01.409Z,13.22
2017-10-26T05:29:42.118Z,13.18
2017-10-26T05:30:22.669Z,13.18
2017-10-26T05:31:03.248Z,13.13
2017-10-26T05:31:43.814Z,13.16
2017-10-26T05:32:24.395Z,13.13
2017-10-26T05:33:04.987Z,13.08
2017-10-26T05:33:45.571Z,13.15
2017-10-26T05:34:26.146Z,13.08
2017-10-26T05:35:06.751Z,13.09
2017-10-26T05:35:47.330Z,13.11
2017-10-26T05:36:27.899Z,13.09
2017-10-26T05:37:08.503Z,13.11
2017-10-26T05:37:49.088Z,13.11
2017-10-26T05:38:29.670Z,13.08
2017-10-26T05:39:10.252Z,13.15
2017-10-26T05:39:50.848Z,13.13
2017-10-26T05:40:31.430Z,13.11
2017-10-26T05:41:12.041Z,13.11
2017-10-26T05:41:52.648Z,13.16
2017-10-26T05:42:33.231Z,13.22
2017-10-26T05:43:13.796Z,13.13
2017-10-26T05:43:54.384Z,13.18
2017-10-26T05:44:34.953Z,13.11
2017-10-26T05:45:15.525Z,13.28
2017-10-26T05:45:56.099Z,13.12
2017-10-26T05:46:36.692Z,13.13
2017-10-26T05:47:17.283Z,13.15
2017-10-26T05:47:58.653Z,13.16
2017-10-26T05:48:39.238Z,13.2
2017-10-26T05:49:19.840Z,13.18
2017-10-26T05:50:00.439Z,13.19
2017-10-26T05:50:41.027Z,13.22
2017-10-26T05:51:21.637Z,13.22
2017-10-26T05:52:02.211Z,13.2
2017-10-26T05:52:42.801Z,13.16
2017-10-26T05:53:23.402Z,13.27
2017-10-26T05:54:04.069Z,13.19
2017-10-26T05:54:44.622Z,13.19
2017-10-26T05:55:25.228Z,13.13
2017-10-26T05:56:05.819Z,13.25
2017-10-26T05:56:46.421Z,13.13
2017-10-26T05:57:27.085Z,13.25
2017-10-26T05:58:07.706Z,13.19
2017-10-26T05:58:48.331Z,13.18
2017-10-26T05:59:29.450Z,13.19
2017-10-26T06:00:10.026Z,13.18
2017-10-26T06:00:50.592Z,13.2
2017-10-26T06:01:31.172Z,13.23
2017-10-26T06:02:11.777Z,13.27
2017-10-26T06:02:52.379Z,13.18
2017-10-26T06:03:32.997Z,13.12
2017-10-26T06:04:13.564Z,13.2
2017-10-26T06:04:54.169Z,13.11
2017-10-26T06:05:34.735Z,13.22
2017-10-26T06:06:15.323Z,13.19
2017-10-26T06:06:55.930Z,13.13
2017-10-26T06:07:36.525Z,13.05
2017-10-26T06:08:17.126Z,13.12
2017-10-26T06:08:57.714Z,13.16
2017-10-26T06:09:38.307Z,13.16
2017-10-26T06:10:18.903Z,13.19
2017-10-26T06:10:59.507Z,13.11
2017-10-26T06:11:40.151Z,13.18
2017-10-26T06:12:20.751Z,13.19
2017-10-26T06:13:01.351Z,13.15
2017-10-26T06:13:41.953Z,13.27
2017-10-26T06:14:22.554Z,13.19
2017-10-26T06:15:03.158Z,13.2
2017-10-26T06:15:43.724Z,13.23
2017-10-26T06:16:24.333Z,13.23
2017-10-26T06:17:04.917Z,13.22
2017-10-26T06:17:45.505Z,13.3
2017-10-26T06:18:26.093Z,13.3
2017-10-26T06:19:06.701Z,13.27
2017-10-26T06:19:47.262Z,13.22
2017-10-26T06:20:27.864Z,13.22
2017-10-26T06:21:08.431Z,13.27
2017-10-26T06:21:49.008Z,13.3
2017-10-26T06:22:29.644Z,13.23
2017-10-26T06:23:10.217Z,13.2
2017-10-26T06:23:50.791Z,13.25
2017-10-26T06:24:31.357Z,13.22
2017-10-26T06:25:11.955Z,13.18
2017-10-26T06:25:52.559Z,13.19
2017-10-26T06:26:33.138Z,13.27
2017-10-26T06:27:13.706Z,13.2
2017-10-26T06:27:54.280Z,13.25
2017-10-26T06:28:34.867Z,13.2
2017-10-26T06:29:15.439Z,13.2
2017-10-26T06:29:56.105Z,13.23
2017-10-26T06:30:36.691Z,13.23
2017-10-26T06:31:17.252Z,13.23
2017-10-26T06:31:57.831Z,13.23
2017-10-26T06:32:38.402Z,13.25
2017-10-26T06:33:19.003Z,13.22
2017-10-26T06:33:59.570Z,13.16
2017-10-26T06:34:40.161Z,13.08
2017-10-26T06:35:20.724Z,13.11
2017-10-26T06:36:01.301Z,13.13
2017-10-26T06:36:41.909Z,13.12
2017-10-26T06:37:22.526Z,13.04
2017-10-26T06:38:03.163Z,13.11
2017-10-26T06:38:43.738Z,13.12
2017-10-26T06:39:24.304Z,13.12
2017-10-26T06:40:04.870Z,13.08
2017-10-26T06:40:45.459Z,13.08
2017-10-26T06:41:26.035Z,13.09
2017-10-26T06:42:06.594Z,13.05
2017-10-26T06:42:47.175Z,13.12
2017-10-26T06:43:27.729Z,13.13
2017-10-26T06:44:08.314Z,13.05
2017-10-26T06:44:48.883Z,13.08
2017-10-26T06:45:29.452Z,13.09
2017-10-26T06:46:10.039Z,13.11
2017-10-26T06:46:50.616Z,13.08
2017-10-26T06:47:31.193Z,13.08
2017-10-26T06:48:11.759Z,13.09
2017-10-26T06:48:52.375Z,13.08
2017-10-26T06:49:32.992Z,13.08
2017-10-26T06:50:13.593Z,13.12
2017-10-26T06:50:54.163Z,13.18
2017-10-26T06:51:34.751Z,13.11
2017-10-26T06:52:15.367Z,13.05
2017-10-26T06:52:55.917Z,13.12
2017-10-26T06:53:36.504Z,13.19
2017-10-26T06:54:17.119Z,13.22
2017-10-26T06:54:57.720Z,13.18
2017-10-26T06:55:38.286Z,13.2
2017-10-26T06:56:18.882Z,13.28
2017-10-26T06:56:59.456Z,13.19
2017-10-26T06:57:40.048Z,13.23
2017-10-26T06:58:20.686Z,13.27
2017-10-26T06:59:01.218Z,13.28
2017-10-26T06:59:41.807Z,13.22
2017-10-26T07:00:22.390Z,13.35
2017-10-26T07:01:02.980Z,13.23
2017-10-26T07:01:43.559Z,13.22
2017-10-26T07:02:24.133Z,13.27
2017-10-26T07:03:04.733Z,13.31
2017-10-26T07:03:45.370Z,13.2
2017-10-26T07:04:25.906Z,13.33
2017-10-26T07:05:06.488Z,13.31
2017-10-26T07:05:47.115Z,13.31
2017-10-26T07:06:27.712Z,13.37
2017-10-26T07:07:08.312Z,13.39
2017-10-26T07:07:48.933Z,13.37
2017-10-26T07:08:29.618Z,13.42
2017-10-26T07:09:10.186Z,13.38
2017-10-26T07:09:50.753Z,13.35
2017-10-26T07:10:31.354Z,13.37
2017-10-26T07:11:11.939Z,13.38
2017-10-26T07:11:52.538Z,13.38
2017-10-26T07:12:33.192Z,13.39
2017-10-26T07:13:13.789Z,13.41
2017-10-26T07:13:54.366Z,13.41
2017-10-26T07:14:34.991Z,13.42
2017-10-26T07:15:15.579Z,13.46
2017-10-26T07:15:56.153Z,13.37
2017-10-26T07:16:36.838Z,13.44
2017-10-26T07:17:17.442Z,13.37
2017-10-26T07:17:58.056Z,13.44
2017-10-26T07:18:38.624Z,13.39
2017-10-26T07:19:19.224Z,13.39
2017-10-26T07:19:59.829Z,13.37
2017-10-26T07:20:40.427Z,13.42
2017-10-26T07:21:21.004Z,13.52
2017-10-26T07:22:01.642Z,13.39
2017-10-26T07:22:42.225Z,13.39
2017-10-26T07:23:22.808Z,13.42
2017-10-26T07:24:03.383Z,13.53
2017-10-26T07:24:43.951Z,13.47
2017-10-26T07:25:24.546Z,13.5
2017-10-26T07:26:05.139Z,13.52
2017-10-26T07:26:45.707Z,13.53
2017-10-26T07:27:26.284Z,13.53
2017-10-26T07:28:06.870Z,13.52
2017-10-26T07:28:47.438Z,13.41
2017-10-26T07:29:28.020Z,13.53
2017-10-26T07:30:08.633Z,13.33
2017-10-26T07:30:49.196Z,13.47
2017-10-26T07:31:29.777Z,13.49
2017-10-26T07:32:10.362Z,13.5
2017-10-26T07:32:50.947Z,13.46
2017-10-26T07:33:31.578Z,13.41
2017-10-26T07:34:12.155Z,13.44
2017-10-26T07:34:52.728Z,13.56
2017-10-26T07:35:33.300Z,13.38
2017-10-26T07:36:13.897Z,13.39
2017-10-26T07:36:54.544Z,13.42
2017-10-26T07:37:35.100Z,13.38
2017-10-26T07:38:15.728Z,13.38
2017-10-26T07:38:56.312Z,13.44
2017-10-26T07:39:36.898Z,13.49
2017-10-26T07:40:17.476Z,13.47
2017-10-26T07:40:58.037Z,13.41
2017-10-26T07:41:38.613Z,13.41
2017-10-26T07:42:19.189Z,13.5
2017-10-26T07:42:59.759Z,13.52
2017-10-26T07:43:40.335Z,13.52
2017-10-26T07:44:20.976Z,13.47
2017-10-26T07:45:01.565Z,13.53
2017-10-26T07:45:42.127Z,13.49
2017-10-26T07:46:22.751Z,13.5
2017-10-26T07:47:03.308Z,13.53
2017-10-26T07:47:43.903Z,13.5
2017-10-26T07:48:24.541Z,13.47
2017-10-26T07:49:05.160Z,13.46
2017-10-26T07:49:45.745Z,13.49
2017-10-26T07:50:26.331Z,13.56
2017-10-26T07:51:06.941Z,13.44
2017-10-26T07:51:47.560Z,13.53
2017-10-26T07:52:28.214Z,13.62
2017-10-26T07:53:08.812Z,13.6
2017-10-26T07:53:49.420Z,13.74
2017-10-26T07:54:30.060Z,13.7
2017-10-26T07:55:10.665Z,13.77
2017-10-26T07:55:51.265Z,13.85
2017-10-26T07:56:31.856Z,13.79
2017-10-26T07:57:12.477Z,13.81
2017-10-26T07:57:53.063Z,13.78
2017-10-26T07:58:33.680Z,13.79
2017-10-26T07:59:14.256Z,13.78
2017-10-26T07:59:54.848Z,13.89
2017-10-26T08:00:35.463Z,13.87
2017-10-26T08:01:16.049Z,13.77
2017-10-26T08:01:56.621Z,13.77
2017-10-26T08:02:37.213Z,13.81
2017-10-26T08:03:17.772Z,13.78
2017-10-26T08:03:58.346Z,13.83
2017-10-26T08:04:38.956Z,13.86
2017-10-26T08:05:19.568Z,13.89
2017-10-26T08:06:00.163Z,13.93
2017-10-26T08:06:40.766Z,13.93
2017-10-26T08:07:21.348Z,13.9
2017-10-26T08:08:01.964Z,13.86
2017-10-26T08:08:42.549Z,13.92
2017-10-26T08:09:23.139Z,13.92
2017-10-26T08:10:03.749Z,13.92
2017-10-26T08:10:44.355Z,14
2017-10-26T08:11:24.912Z,14.07
2017-10-26T08:12:05.508Z,14.07
2017-10-26T08:12:46.119Z,14.14
2017-10-26T08:13:26.747Z,14.11
2017-10-26T08:14:07.343Z,14.05
2017-10-26T08:14:47.930Z,14.05
2017-10-26T08:15:28.502Z,14.1
2017-10-26T08:16:09.095Z,14.1
2017-10-26T08:16:49.665Z,13.97
2017-10-26T08:17:30.275Z,13.99
2017-10-26T08:18:10.878Z,14.05
2017-10-26T08:18:51.480Z,13.95
2017-10-26T08:19:32.050Z,14
2017-10-26T08:20:12.640Z,13.93
2017-10-26T08:20:53.279Z,13.97
2017-10-26T08:21:33.894Z,14.07
2017-10-26T08:22:14.489Z,13.99
2017-10-26T08:22:55.218Z,13.89
2017-10-26T08:23:35.842Z,13.95
2017-10-26T08:24:16.455Z,13.95
2017-10-26T08:24:57.002Z,13.92
2017-10-26T08:25:37.590Z,13.95
2017-10-26T08:26:18.173Z,13.95
2017-10-26T08:26:58.766Z,13.93
2017-10-26T08:27:39.407Z,13.87
2017-10-26T08:28:20.004Z,13.89
2017-10-26T08:29:00.570Z,13.93
2017-10-26T08:29:41.177Z,13.87
2017-10-26T08:30:21.784Z,13.89
2017-10-26T08:31:02.343Z,13.89
2017-10-26T08:31:42.958Z,13.95
2017-10-26T08:32:23.548Z,14.03
2017-10-26T08:33:04.163Z,13.9
2017-10-26T08:33:44.789Z,13.89
2017-10-26T08:34:25.365Z,13.92
2017-10-26T08:35:05.959Z,13.92
2017-10-26T08:35:46.562Z,13.87
2017-10-26T08:36:27.139Z,13.89
2017-10-26T08:37:07.728Z,13.89
2017-10-26T08:37:48.296Z,13.95
2017-10-26T08:38:28.874Z,13.9
2017-10-26T08:39:09.505Z,13.89
2017-10-26T08:39:50.053Z,13.81
2017-10-26T08:40:30.659Z,13.89
2017-10-26T08:41:11.250Z,13.9
2017-10-26T08:41:51.853Z,13.9
2017-10-26T08:42:32.398Z,13.9
2017-10-26T08:43:12.960Z,13.95
2017-10-26T08:43:53.544Z,13.9